Time;durP1;ratioP1;P1;durP2;ratioP2;P2;SDS_P1;SDS_P2;PMS_P1;PMS_P2;Temp;Humidity;BMP_temperature;BMP_pressure;BME280_temperature;BME280_humidity;BME280_pressure;Samples;Min_cycle;Max_cycle;Signal;HPM_P1;HPM_P2
2022/10/04 00:07:56;;;;;;;3.22;2.92;;;;;;;22.60;53.86;100652.78;20646384;28;20506;-74
2022/10/04 00:18:27;;;;;;;3.22;2.63;;;;;;;22.60;54.10;100654.59;20642194;28;20042;-74
2022/10/04 00:28:47;;;;;;;3.17;2.80;;;;;;;22.57;54.17;100645.13;20645513;28;20133;-73
2022/10/04 00:39:03;;;;;;;4.25;2.95;;;;;;;22.56;54.20;100630.25;20642898;28;20041;-74
2022/10/04 00:49:08;;;;;;;2.63;2.35;;;;;;;22.53;54.09;100617.28;20649393;28;20050;-73
2022/10/04 00:59:17;;;;;;;3.97;2.70;;;;;;;22.52;54.42;100613.84;20649232;28;20042;-73
2022/10/04 01:09:19;;;;;;;3.13;2.55;;;;;;;22.51;54.34;100617.44;20644539;28;20129;-73
2022/10/04 01:19:23;;;;;;;2.90;2.50;;;;;;;22.50;54.04;100607.81;20650657;28;20046;-73
2022/10/04 01:29:29;;;;;;;3.05;2.42;;;;;;;22.49;54.26;100606.16;20644627;28;20841;-73
2022/10/04 01:39:30;;;;;;;2.58;2.33;;;;;;;22.49;54.29;100600.03;20648044;28;20580;-73
2022/10/04 01:49:35;;;;;;;2.40;2.13;;;;;;;22.46;54.18;100606.41;20642353;28;20046;-73
2022/10/04 01:59:49;;;;;;;2.95;2.30;;;;;;;22.46;54.57;100589.72;20647690;28;20112;-74
2022/10/04 02:09:55;;;;;;;2.63;2.17;;;;;;;22.45;54.44;100604.72;20653119;28;20081;-73
2022/10/04 02:19:57;;;;;;;2.28;2.05;;;;;;;22.44;54.34;100602.22;20665319;28;20133;-74
2022/10/04 02:30:07;;;;;;;2.07;1.87;;;;;;;22.43;54.52;100614.56;20665900;28;20084;-73
2022/10/04 02:40:12;;;;;;;2.72;1.92;;;;;;;22.39;54.79;100621.88;20655187;28;20057;-74
2022/10/04 02:50:35;;;;;;;2.72;1.90;;;;;;;22.40;54.22;100606.91;20654437;28;20053;-73
2022/10/04 03:00:46;;;;;;;2.42;1.92;;;;;;;22.40;54.32;100604.25;20650506;28;20440;-73
2022/10/04 03:10:48;;;;;;;2.70;1.80;;;;;;;22.37;54.17;100605.31;20657292;28;20095;-73
2022/10/04 03:20:49;;;;;;;2.15;1.95;;;;;;;22.35;54.67;100601.09;20659603;28;24642;-74
2022/10/04 03:30:50;;;;;;;2.97;1.67;;;;;;;22.34;54.66;100596.78;20657752;28;20893;-73
2022/10/04 03:40:55;;;;;;;3.65;1.77;;;;;;;22.34;54.38;100613.44;20661255;28;20128;-74
2022/10/04 03:50:57;;;;;;;2.13;1.88;;;;;;;22.30;54.28;100595.34;20657674;28;20412;-74
2022/10/04 04:00:59;;;;;;;2.17;1.80;;;;;;;22.29;54.87;100594.50;20652697;28;20034;-75
2022/10/04 04:11:03;;;;;;;2.03;1.70;;;;;;;22.32;55.81;100593.44;20647903;28;20056;-77
2022/10/04 04:21:06;;;;;;;3.13;1.70;;;;;;;22.43;56.41;100611.91;20666923;28;20056;-79
2022/10/04 04:31:28;;;;;;;52.67;8.93;;;;;;;22.46;56.88;100606.41;20632067;28;20080;-78
2022/10/04 04:41:34;;;;;;;20.95;4.15;;;;;;;22.48;57.14;100608.91;20659087;28;20069;-79
2022/10/04 04:51:34;;;;;;;16.42;3.70;;;;;;;22.46;56.79;100610.81;20658961;28;20053;-81
2022/10/04 05:01:41;;;;;;;26.33;4.15;;;;;;;22.35;55.10;100632.75;20664003;28;20160;-72
2022/10/04 05:11:42;;;;;;;19.15;3.25;;;;;;;22.18;52.91;100637.56;20645468;28;20497;-74
2022/10/04 05:21:47;;;;;;;7.90;2.53;;;;;;;22.19;53.36;100635.75;20641110;28;20100;-75
2022/10/04 05:31:57;;;;;;;12.93;2.60;;;;;;;22.24;54.46;100644.16;20644132;28;20478;-74
2022/10/04 05:42:22;;;;;;;6.32;2.50;;;;;;;22.30;54.91;100650.75;20652049;28;20042;-74
2022/10/04 05:52:32;;;;;;;6.72;2.13;;;;;;;22.30;55.22;100650.75;20657208;28;20047;-74
2022/10/04 06:03:06;;;;;;;7.97;2.50;;;;;;;22.30;55.14;100666.56;20658980;28;20548;-74
2022/10/04 06:13:12;;;;;;;10.02;3.17;;;;;;;22.29;54.94;100670.16;20670300;28;20564;-81
2022/10/04 06:23:16;;;;;;;12.95;4.63;;;;;;;22.32;55.46;100686.59;20686706;28;20046;-75
2022/10/04 06:33:27;;;;;;;18.45;5.43;;;;;;;22.36;55.54;100705.66;20679958;28;20046;-76
2022/10/04 06:43:34;;;;;;;9.15;4.70;;;;;;;22.32;54.49;100693.69;20668305;28;20042;-73
2022/10/04 06:53:43;;;;;;;9.48;5.05;;;;;;;22.35;55.29;100714.53;20678402;28;20133;-73
2022/10/04 07:03:56;;;;;;;10.43;4.65;;;;;;;22.34;55.43;100724.25;20664812;28;20081;-73
2022/10/04 07:14:02;;;;;;;;;;;;;;;22.35;55.23;100733.00;20672390;28;20074;-73
2022/10/04 07:24:05;;;;;;;8.35;4.93;;;;;;;22.36;55.45;100738.19;20668304;28;20004;-74
2022/10/04 07:34:25;;;;;;;;;;;;;;;22.38;55.13;100746.00;20669077;28;20034;-72
2022/10/04 07:44:42;;;;;;;8.35;5.65;;;;;;;22.38;55.29;100748.63;20664992;28;19932;-73
2022/10/04 07:54:46;;;;;;;9.88;6.00;;;;;;;22.41;55.32;100755.47;20648699;28;20057;-73
2022/10/04 08:05:08;;;;;;;9.52;6.97;;;;;;;22.45;55.04;100759.53;20660410;28;20045;-74
2022/10/04 08:15:37;;;;;;;13.40;6.60;;;;;;;22.45;55.30;100781.50;20667144;28;20041;-73
2022/10/04 08:25:56;;;;;;;12.30;7.07;;;;;;;22.50;55.21;100797.00;20654555;28;20050;-73
2022/10/04 08:36:23;;;;;;;13.18;8.00;;;;;;;22.51;55.05;100788.97;20648758;28;20041;-74
2022/10/04 08:46:51;;;;;;;10.10;7.13;;;;;;;22.52;55.16;100790.63;20644246;28;20049;-74
2022/10/04 08:57:20;;;;;;;10.13;7.53;;;;;;;22.54;55.02;100788.72;20653083;28;20045;-73
2022/10/04 09:07:32;;;;;;;12.68;8.82;;;;;;;22.55;54.85;100787.75;20647247;28;20109;-73
2022/10/04 09:17:45;;;;;;;;;;;;;;;22.59;55.06;100776.97;20639784;28;20041;-74
2022/10/04 09:28:12;;;;;;;9.35;7.47;;;;;;;22.63;54.96;100783.69;20635211;28;19928;-74
2022/10/04 09:38:41;;;;;;;9.05;7.57;;;;;;;22.66;54.70;100805.41;20659436;28;20038;-75
2022/10/04 09:49:36;;;;;;;11.65;7.38;;;;;;;22.70;54.39;100803.38;20685348;28;20108;-74
2022/10/04 10:00:10;;;;;;;9.05;6.75;;;;;;;22.71;54.35;100811.16;20536082;28;20042;-75
2022/10/04 10:21:07;;;;;;;8.98;6.35;;;;;;;22.70;54.47;100819.19;20646944;28;21192;-77
2022/10/04 10:31:23;;;;;;;14.38;6.28;;;;;;;22.78;54.41;100818.63;20657162;22;20522;-76
2022/10/04 10:41:52;;;;;;;10.23;5.75;;;;;;;22.82;54.54;100812.97;20663948;28;20046;-75
2022/10/04 10:52:34;;;;;;;8.25;6.00;;;;;;;22.92;54.78;100805.16;20668076;28;20833;-75
2022/10/04 11:02:37;;;;;;;15.07;6.72;;;;;;;23.03;54.29;100821.03;20679768;28;20060;-76
2022/10/04 11:13:11;;;;;;;9.10;6.25;;;;;;;23.15;53.99;100813.91;20671704;28;20045;-75
2022/10/04 11:23:33;;;;;;;10.35;6.85;;;;;;;23.20;54.37;100824.16;20677912;28;20041;-75
2022/10/04 11:33:49;;;;;;;9.17;5.43;;;;;;;23.10;52.68;100818.75;20681141;28;20050;-75
2022/10/04 11:44:14;;;;;;;5.53;4.40;;;;;;;23.07;51.88;100826.06;20687617;28;20038;-75
2022/10/04 11:54:54;;;;;;;6.10;4.53;;;;;;;23.11;52.46;100822.22;20678412;28;20572;-75
2022/10/04 12:05:22;;;;;;;7.28;5.18;;;;;;;23.12;52.68;100827.38;20655276;28;20116;-75
2022/10/04 12:15:58;;;;;;;6.80;4.65;;;;;;;23.26;52.85;100818.38;20656971;28;20046;-76
2022/10/04 12:26:26;;;;;;;5.65;3.70;;;;;;;23.38;51.35;100821.88;20673719;28;20084;-75
2022/10/04 12:36:55;;;;;;;4.82;3.22;;;;;;;23.44;50.58;100820.53;20672246;28;20378;-75
2022/10/04 12:47:38;;;;;;;5.68;3.15;;;;;;;23.50;49.85;100820.88;20675032;28;20041;-75
2022/10/04 12:58:02;;;;;;;3.65;2.80;;;;;;;23.43;49.45;100835.53;20672158;28;21061;-75
2022/10/04 13:08:19;;;;;;;9.60;2.47;;;;;;;23.38;48.39;100821.88;20674464;28;20472;-75
2022/10/04 13:18:38;;;;;;;5.75;2.00;;;;;;;23.50;48.02;100820.88;20663134;28;20119;-77
2022/10/04 13:29:03;;;;;;;5.88;2.10;;;;;;;23.61;48.47;100821.81;20648137;28;20812;-78
2022/10/04 13:39:17;;;;;;;2.28;1.70;;;;;;;23.68;47.87;100817.72;20652942;28;20061;-78
2022/10/04 13:49:53;;;;;;;3.45;1.70;;;;;;;23.77;48.15;100830.19;20678551;28;20109;-81
2022/10/04 14:00:18;;;;;;;4.13;1.35;;;;;;;23.86;47.25;100838.31;20676733;28;20052;-80
2022/10/04 14:10:41;;;;;;;5.13;1.80;;;;;;;23.90;47.65;100845.88;20669509;28;20056;-80
2022/10/04 14:21:35;;;;;;;2.03;1.42;;;;;;;23.95;48.10;100861.41;20681097;28;20062;-80
2022/10/04 14:32:13;;;;;;;8.77;1.60;;;;;;;24.00;48.06;100856.59;20601974;28;20046;-78
2022/10/04 14:42:45;;;;;;;3.25;1.77;;;;;;;24.05;48.76;100853.56;20664126;28;20594;-77
2022/10/04 14:53:10;;;;;;;7.13;1.73;;;;;;;24.10;49.35;100872.53;20657042;28;20038;-78
2022/10/04 15:03:31;;;;;;;4.72;1.92;;;;;;;24.03;49.70;100881.94;20652712;28;20050;-78
2022/10/04 15:13:36;;;;;;;9.70;2.13;;;;;;;23.98;50.11;100888.44;20661316;28;20046;-77
2022/10/04 15:23:41;;;;;;;7.65;2.20;;;;;;;23.90;50.72;100888.22;20679309;28;20178;-77
2022/10/04 15:33:57;;;;;;;8.07;1.90;;;;;;;23.83;50.86;100905.53;20744070;22;20619;-76
2022/10/04 15:44:06;;;;;;;3.67;2.30;;;;;;;23.83;52.53;100908.19;20671483;28;20048;-80
2022/10/04 15:54:40;;;;;;;9.05;3.05;;;;;;;23.85;54.60;100930.03;20646419;28;20050;-77
2022/10/04 16:04:59;;;;;;;6.63;3.35;;;;;;;23.81;55.18;100932.09;20658967;28;20046;-79
2022/10/04 16:15:39;;;;;;;38.20;25.55;;;;;;;23.83;55.46;100950.50;20665047;28;20061;-78
2022/10/04 16:25:40;;;;;;;59.88;42.80;;;;;;;23.82;56.08;100962.84;20661002;28;20401;-79
2022/10/04 16:35:48;;;;;;;69.95;53.30;;;;;;;23.81;56.97;100961.19;20653513;28;20030;-73
2022/10/04 16:46:08;;;;;;;54.88;40.83;;;;;;;23.76;54.96;100970.44;20646114;28;20564;-74
2022/10/04 16:56:17;;;;;;;44.75;31.35;;;;;;;23.65;53.50;100979.22;20646762;28;20073;-73
2022/10/04 17:06:27;;;;;;;34.97;24.13;;;;;;;23.56;51.84;100988.72;20644761;28;20042;-74
2022/10/04 17:16:55;;;;;;;27.88;21.30;;;;;;;23.51;50.66;100998.81;20642607;28;20379;-74
2022/10/04 17:27:01;;;;;;;26.88;19.75;;;;;;;23.51;52.11;101017.31;20642971;28;20097;-75
2022/10/04 17:37:25;;;;;;;26.25;19.08;;;;;;;23.48;52.88;101031.59;20650252;28;20516;-77
2022/10/04 17:55:14;;;;;;;28.35;19.15;;;;;;;23.46;54.14;101036.19;20672256;28;20405;-76
2022/10/04 17:58:01;;;;;;;27.25;18.52;;;;;;;23.42;54.50;101041.81;20666517;28;20049;-72
2022/10/04 18:08:04;;;;;;;22.27;16.75;;;;;;;23.39;54.53;101045.53;20664208;28;20077;-72
2022/10/04 18:18:07;;;;;;;25.90;16.65;;;;;;;23.37;54.69;101051.91;20666329;28;20090;-73
2022/10/04 18:28:07;;;;;;;21.90;16.50;;;;;;;23.34;55.15;101064.38;20669846;28;20470;-77
2022/10/04 18:38:23;;;;;;;20.42;14.77;;;;;;;23.35;56.11;101078.41;20670577;28;20038;-77
2022/10/04 18:48:56;;;;;;;21.65;14.77;;;;;;;23.34;56.20;101084.69;20681748;28;20042;-77
2022/10/04 19:10:01;;;;;;;19.75;14.20;;;;;;;23.28;55.90;101108.94;20670660;28;20754;-74
2022/10/04 19:20:05;;;;;;;23.08;12.98;;;;;;;23.27;55.69;101117.81;20649263;28;20066;-75
2022/10/04 19:30:24;;;;;;;20.05;11.65;;;;;;;23.18;54.51;101124.63;20656266;28;20050;-79
2022/10/04 19:40:24;;;;;;;15.60;11.60;;;;;;;23.11;54.79;101137.41;20678848;28;20046;-79
2022/10/04 19:50:38;;;;;;;13.52;10.55;;;;;;;23.05;55.13;101148.44;20685131;28;20066;-79
2022/10/04 20:00:39;;;;;;;14.68;10.57;;;;;;;23.04;55.16;101157.31;20687784;28;20128;-78
2022/10/04 20:10:40;;;;;;;14.70;10.65;;;;;;;23.02;54.94;101161.84;20685401;28;20070;-79
2022/10/04 20:20:41;;;;;;;11.70;9.00;;;;;;;22.97;55.58;101167.50;20665585;28;20795;-79
2022/10/04 20:30:58;;;;;;;12.18;9.25;;;;;;;22.98;55.68;101176.25;20679514;28;20064;-77
2022/10/04 20:40:59;;;;;;;12.85;8.93;;;;;;;22.97;55.55;101182.47;20657998;28;20042;-78
2022/10/04 20:51:09;;;;;;;12.98;8.90;;;;;;;22.96;55.35;101189.56;20667657;28;20076;-78
2022/10/04 21:11:46;;;;;;;14.60;8.50;;;;;;;23.04;55.70;101199.56;20669105;28;20228;-78
2022/10/04 21:21:49;;;;;;;11.00;8.23;;;;;;;23.03;55.23;101203.16;20660149;28;20125;-78
2022/10/04 21:31:49;;;;;;;12.63;7.68;;;;;;;23.02;55.44;101204.13;20656204;28;20425;-78
2022/10/04 21:41:49;;;;;;;11.32;7.70;;;;;;;22.97;55.68;101215.03;20653740;28;20030;-79
2022/10/04 21:51:50;;;;;;;10.45;7.60;;;;;;;22.98;55.34;101215.88;20671754;28;20165;-79
2022/10/04 22:01:50;;;;;;;9.27;6.60;;;;;;;22.94;55.59;101232.91;20647689;28;20049;-77
2022/10/04 22:11:51;;;;;;;6.88;6.18;;;;;;;22.92;55.73;101238.25;20648194;28;20074;-79
2022/10/04 22:21:51;;;;;;;7.03;6.28;;;;;;;22.90;55.37;101237.56;20663900;28;24269;-79
2022/10/04 22:31:51;;;;;;;7.70;6.60;;;;;;;22.89;55.75;101242.91;20650233;28;20149;-80
2022/10/04 22:41:58;;;;;;;7.07;6.32;;;;;;;22.87;55.86;101258.88;20675352;28;20492;-80
2022/10/04 22:52:01;;;;;;;7.55;5.82;;;;;;;22.84;55.60;101256.47;20672703;28;20050;-79
2022/10/04 23:02:09;;;;;;;6.65;5.97;;;;;;;22.79;55.85;101256.78;20679823;28;20509;-79
2022/10/04 23:12:09;;;;;;;8.20;5.75;;;;;;;22.79;55.76;101266.50;20680537;28;20049;-80
2022/10/04 23:22:16;;;;;;;6.20;5.60;;;;;;;22.75;55.72;101273.78;20669854;28;20031;-78
2022/10/04 23:32:17;;;;;;;6.70;5.68;;;;;;;22.68;55.96;101291.88;20671110;28;20096;-78
2022/10/04 23:42:27;;;;;;;7.10;5.40;;;;;;;22.68;55.53;101299.78;20661516;28;20272;-79
2022/10/04 23:52:36;;;;;;;6.65;5.43;;;;;;;22.65;55.72;101307.91;20677391;28;20056;-78
